createdAt,value
2022-09-24T00:00:34.523Z,2.70
2022-09-24T00:03:04.526Z,2.40
2022-09-24T00:05:40.112Z,2.80
2022-09-24T00:08:11.115Z,2.80
2022-09-24T00:10:41.737Z,2.53
2022-09-24T00:13:16.295Z,2.47
2022-09-24T00:15:47.641Z,2.97
2022-09-24T00:18:20.948Z,2.57
2022-09-24T00:20:51.204Z,1.90
2022-09-24T00:23:21.524Z,2.37
2022-09-24T00:26:03.733Z,2.30
2022-09-24T00:28:37.020Z,2.37
2022-09-24T00:31:08.468Z,2.23
2022-09-24T00:33:39.062Z,2.80
2022-09-24T00:36:09.316Z,2.40
2022-09-24T00:38:39.639Z,3.00
2022-09-24T00:41:09.725Z,2.97
2022-09-24T00:43:42.570Z,2.87
2022-09-24T00:46:19.450Z,2.60
2022-09-24T00:48:50.457Z,3.13
2022-09-24T00:51:23.616Z,2.70
2022-09-24T00:53:57.858Z,2.30
2022-09-24T00:56:28.231Z,2.70
2022-09-24T00:59:04.566Z,2.43
2022-09-24T01:01:34.841Z,2.63
2022-09-24T01:04:07.210Z,2.50
2022-09-24T01:06:38.238Z,2.90
2022-09-24T01:09:08.340Z,2.30
2022-09-24T01:11:46.553Z,2.27
2022-09-24T01:14:45.017Z,2.87
2022-09-24T01:17:23.815Z,2.93
2022-09-24T01:20:14.849Z,2.60
2022-09-24T01:23:01.195Z,3.00
2022-09-24T01:25:38.030Z,2.30
2022-09-24T01:28:30.529Z,2.40
2022-09-24T01:31:08.484Z,2.60
2022-09-24T01:33:39.856Z,2.57
2022-09-24T01:36:14.249Z,2.50
2022-09-24T01:38:47.046Z,2.70
2022-09-24T01:41:19.167Z,2.67
2022-09-24T01:43:49.553Z,2.47
2022-09-24T01:46:24.148Z,2.30
2022-09-24T01:48:54.080Z,1.97
2022-09-24T01:51:29.369Z,2.30
2022-09-24T01:54:04.571Z,2.10
2022-09-24T01:56:40.014Z,2.50
2022-09-24T01:59:15.708Z,2.73
2022-09-24T02:01:54.452Z,2.17
2022-09-24T02:04:27.078Z,2.53
2022-09-24T02:07:03.709Z,2.40
2022-09-24T02:09:40.088Z,2.40
2022-09-24T02:12:14.686Z,2.40
2022-09-24T02:14:48.648Z,3.20
2022-09-24T02:17:22.621Z,2.50
2022-09-24T02:19:53.225Z,2.50
2022-09-24T02:22:25.442Z,3.00
2022-09-24T02:24:58.025Z,2.87
2022-09-24T02:27:29.158Z,3.30
2022-09-24T02:29:59.087Z,2.50
2022-09-24T02:32:35.805Z,2.80
2022-09-24T02:35:07.175Z,3.10
2022-09-24T02:37:39.480Z,3.00
2022-09-24T02:40:11.846Z,3.13
2022-09-24T02:42:43.781Z,3.50
2022-09-24T02:45:14.767Z,2.97
2022-09-24T02:47:47.736Z,2.97
2022-09-24T02:50:17.660Z,3.23
2022-09-24T02:52:47.869Z,3.43
2022-09-24T02:55:17.735Z,3.13
2022-09-24T02:57:48.496Z,3.37
2022-09-24T03:00:21.163Z,3.20
2022-09-24T03:02:54.699Z,2.73
2022-09-24T03:05:24.567Z,2.60
2022-09-24T03:07:55.123Z,2.30
2022-09-24T03:10:24.873Z,2.70
2022-09-24T03:12:55.553Z,3.10
2022-09-24T03:15:25.957Z,3.47
2022-09-24T03:17:58.812Z,3.40
2022-09-24T03:20:28.597Z,3.03
2022-09-24T03:22:58.818Z,2.67
2022-09-24T03:25:28.969Z,3.20
2022-09-24T03:27:59.343Z,3.00
2022-09-24T03:30:41.581Z,3.43
2022-09-24T03:33:14.970Z,3.17
2022-09-24T03:35:46.124Z,2.80
2022-09-24T03:38:15.854Z,3.13
2022-09-24T03:40:46.401Z,2.73
2022-09-24T03:43:16.508Z,2.97
2022-09-24T03:45:46.265Z,2.97
2022-09-24T03:48:20.034Z,2.60
2022-09-24T03:50:50.263Z,2.77
2022-09-24T03:53:21.789Z,3.27
2022-09-24T03:55:56.144Z,3.33
2022-09-24T03:58:27.326Z,2.67
2022-09-24T04:00:57.938Z,3.47
2022-09-24T04:03:31.278Z,3.20
2022-09-24T04:06:01.032Z,2.90
2022-09-24T04:08:31.728Z,3.50
2022-09-24T04:11:01.609Z,2.90
2022-09-24T04:13:31.860Z,2.90
2022-09-24T04:16:04.894Z,2.70
2022-09-24T04:18:39.886Z,3.30
2022-09-24T04:21:09.841Z,3.10
2022-09-24T04:23:40.126Z,3.60
2022-09-24T04:26:10.505Z,2.97
2022-09-24T04:28:41.266Z,2.73
2022-09-24T04:31:11.074Z,3.03
2022-09-24T04:33:44.628Z,2.90
2022-09-24T04:36:14.417Z,2.70
2022-09-24T04:38:46.741Z,3.20
2022-09-24T04:41:17.727Z,3.40
2022-09-24T04:43:48.232Z,3.27
2022-09-24T04:46:19.294Z,2.93
2022-09-24T04:48:53.563Z,4.53
2022-09-24T04:51:23.346Z,3.90
2022-09-24T04:53:53.657Z,3.00
2022-09-24T04:56:23.409Z,3.30
2022-09-24T04:58:55.458Z,3.60
2022-09-24T05:01:25.632Z,3.30
2022-09-24T05:03:59.547Z,3.20
2022-09-24T05:06:29.804Z,3.00
2022-09-24T05:08:59.767Z,3.50
2022-09-24T05:11:29.526Z,3.27
2022-09-24T05:13:59.896Z,3.20
2022-09-24T05:16:29.833Z,2.97
2022-09-24T05:19:04.903Z,3.20
2022-09-24T05:21:34.837Z,2.83
2022-09-24T05:24:05.242Z,3.10
2022-09-24T05:26:56.396Z,2.80
2022-09-24T05:29:26.689Z,2.93
2022-09-24T05:31:56.809Z,3.27
2022-09-24T05:34:29.250Z,3.47
2022-09-24T05:36:59.377Z,3.57
2022-09-24T05:39:33.643Z,3.20
2022-09-24T05:42:04.390Z,3.40
2022-09-24T05:44:34.181Z,3.13
2022-09-24T05:47:05.012Z,2.83
2022-09-24T05:49:37.336Z,3.70
2022-09-24T05:52:07.317Z,3.27
2022-09-24T05:54:37.069Z,3.20
2022-09-24T05:57:08.043Z,3.10
2022-09-24T05:59:37.749Z,3.20
2022-09-24T06:02:08.300Z,3.27
2022-09-24T06:04:40.711Z,3.90
2022-09-24T06:07:12.029Z,4.37
2022-09-24T06:09:41.758Z,3.90
2022-09-24T06:12:12.132Z,4.10
2022-09-24T06:14:42.644Z,3.60
2022-09-24T06:17:12.800Z,4.17
2022-09-24T06:19:45.772Z,2.90
2022-09-24T06:22:16.884Z,3.20
2022-09-24T06:24:47.129Z,3.40
2022-09-24T06:27:17.052Z,3.30
2022-09-24T06:29:46.783Z,4.17
2022-09-24T06:32:16.969Z,3.07
2022-09-24T06:34:49.466Z,3.40
2022-09-24T06:37:19.822Z,2.97
2022-09-24T06:39:49.615Z,3.30
2022-09-24T06:42:21.276Z,3.00
2022-09-24T06:44:51.518Z,3.17
2022-09-24T06:47:21.705Z,3.30
2022-09-24T06:49:54.011Z,3.67
2022-09-24T06:52:24.339Z,3.50
2022-09-24T06:54:56.015Z,4.50
2022-09-24T06:57:28.921Z,3.60
2022-09-24T06:59:58.923Z,3.23
2022-09-24T07:02:28.817Z,3.40
2022-09-24T07:05:01.153Z,3.30
2022-09-24T07:07:34.594Z,3.47
2022-09-24T07:10:06.232Z,3.40
2022-09-24T07:12:38.472Z,3.17
2022-09-24T07:15:09.695Z,3.07
2022-09-24T07:17:40.539Z,3.30
2022-09-24T07:20:13.262Z,3.47
2022-09-24T07:22:44.696Z,3.60
2022-09-24T07:25:15.095Z,3.40
2022-09-24T07:27:45.274Z,3.50
2022-09-24T07:30:16.023Z,3.53
2022-09-24T07:32:45.934Z,2.90
2022-09-24T07:35:18.994Z,2.90
2022-09-24T07:37:49.045Z,3.40
2022-09-24T07:40:23.589Z,3.33
2022-09-24T07:42:54.517Z,4.50
2022-09-24T07:45:24.347Z,3.80
2022-09-24T07:48:00.521Z,3.40
2022-09-24T07:50:34.796Z,3.33
2022-09-24T07:53:06.693Z,3.47
2022-09-24T07:55:41.227Z,3.50
2022-09-24T07:58:14.019Z,3.73
2022-09-24T08:00:44.015Z,3.70
2022-09-24T08:03:14.586Z,4.00
2022-09-24T08:05:50.162Z,3.80
2022-09-24T08:08:21.173Z,3.70
2022-09-24T08:10:50.910Z,3.87
2022-09-24T08:13:25.236Z,4.30
2022-09-24T08:16:01.790Z,4.47
2022-09-24T08:18:34.099Z,4.20
2022-09-24T08:21:11.865Z,4.20
2022-09-24T08:23:43.222Z,4.23
2022-09-24T08:26:14.217Z,4.17
2022-09-24T08:28:44.719Z,3.53
2022-09-24T08:31:16.419Z,4.43
2022-09-24T08:33:50.768Z,3.50
2022-09-24T08:36:23.119Z,3.67
2022-09-24T08:38:56.648Z,3.53
2022-09-24T08:41:46.950Z,4.07
2022-09-24T08:44:42.966Z,4.17
2022-09-24T08:47:24.804Z,3.70
2022-09-24T08:50:05.887Z,3.30
2022-09-24T08:52:53.837Z,3.80
2022-09-24T08:55:30.054Z,4.10
2022-09-24T08:58:09.011Z,3.93
2022-09-24T09:00:46.192Z,3.80
2022-09-24T09:03:24.472Z,3.70
2022-09-24T09:05:59.389Z,4.67
2022-09-24T09:09:05.836Z,4.20
2022-09-24T09:11:34.775Z,3.30
2022-09-24T09:14:11.760Z,3.40
2022-09-24T09:16:50.150Z,3.73
2022-09-24T09:19:22.382Z,3.60
2022-09-24T09:21:56.008Z,3.77
2022-09-24T09:24:35.422Z,3.70
2022-09-24T09:27:12.256Z,2.97
2022-09-24T09:29:42.377Z,4.10
2022-09-24T09:32:25.207Z,3.40
2022-09-24T09:35:06.237Z,3.20
2022-09-24T09:37:44.471Z,3.30
2022-09-24T09:40:32.191Z,3.90
2022-09-24T09:43:05.184Z,4.17
2022-09-24T09:45:40.852Z,3.67
2022-09-24T09:48:15.154Z,4.00
2022-09-24T09:50:47.772Z,4.53
2022-09-24T09:53:23.565Z,4.03
2022-09-24T09:56:00.934Z,3.83
2022-09-24T09:58:34.294Z,3.87
2022-09-24T10:01:09.670Z,3.93
2022-09-24T10:03:51.136Z,4.20
2022-09-24T10:06:27.338Z,4.70
2022-09-24T10:08:58.043Z,4.37
2022-09-24T10:11:30.349Z,4.50
2022-09-24T10:14:07.422Z,4.40
2022-09-24T10:16:41.087Z,4.23
2022-09-24T10:19:24.427Z,3.90
2022-09-24T10:21:57.598Z,4.40
2022-09-24T10:24:30.272Z,4.53
2022-09-24T10:27:02.831Z,4.60
2022-09-24T10:29:48.894Z,5.20
2022-09-24T10:32:21.790Z,4.87
2022-09-24T10:34:59.285Z,4.80
2022-09-24T10:37:31.208Z,4.60
2022-09-24T10:40:02.316Z,4.47
2022-09-24T10:42:35.291Z,3.80
2022-09-24T10:45:05.942Z,3.87
2022-09-24T10:47:44.485Z,4.40
2022-09-24T10:50:26.338Z,7.83
2022-09-24T10:52:58.842Z,8.40
2022-09-24T10:55:55.483Z,7.60
2022-09-24T10:58:53.750Z,7.90
2022-09-24T11:01:32.496Z,7.17
2022-09-24T11:04:38.961Z,6.70
2022-09-24T11:07:32.072Z,6.60
2022-09-24T11:10:10.284Z,6.47
2022-09-24T11:12:49.362Z,5.20
2022-09-24T11:15:37.058Z,6.23
2022-09-24T11:18:18.762Z,8.43
2022-09-24T11:20:57.981Z,8.20
2022-09-24T11:23:45.719Z,7.70
2022-09-24T11:26:27.153Z,6.80
2022-09-24T11:29:34.738Z,7.33
2022-09-24T11:32:17.010Z,7.77
2022-09-24T11:35:04.345Z,10.07
2022-09-24T11:37:49.733Z,7.60
2022-09-24T11:40:53.307Z,8.47
2022-09-24T11:43:40.334Z,7.70
2022-09-24T11:46:33.244Z,8.60
2022-09-24T11:49:21.413Z,9.80
2022-09-24T11:51:58.641Z,7.70
2022-09-24T11:54:32.890Z,8.10
2022-09-24T11:57:08.237Z,8.47
2022-09-24T11:59:47.899Z,8.37
2022-09-24T12:02:25.073Z,8.10
2022-09-24T12:05:07.134Z,7.80
2022-09-24T12:07:42.033Z,8.80
2022-09-24T12:10:30.196Z,9.30
2022-09-24T12:13:07.418Z,7.37
2022-09-24T12:15:47.252Z,6.80
2022-09-24T12:18:22.341Z,7.40
2022-09-24T12:21:01.572Z,7.43
2022-09-24T12:23:36.066Z,7.67
2022-09-24T12:26:07.855Z,7.43
2022-09-24T12:28:58.722Z,6.77
2022-09-24T12:31:46.319Z,8.30
2022-09-24T12:34:23.267Z,7.17
2022-09-24T12:37:03.126Z,7.30
2022-09-24T12:39:38.481Z,7.07
2022-09-24T12:42:12.436Z,7.80
2022-09-24T12:44:48.101Z,8.37
2022-09-24T12:47:23.280Z,7.20
2022-09-24T12:49:57.813Z,7.57
2022-09-24T12:52:35.134Z,7.63
2022-09-24T12:55:07.052Z,8.03
2022-09-24T12:57:40.262Z,7.20
2022-09-24T13:00:39.355Z,7.23
2022-09-24T13:03:11.453Z,7.20
2022-09-24T13:05:50.971Z,7.83
2022-09-24T13:08:39.042Z,7.83
2022-09-24T13:11:29.534Z,8.50
2022-09-24T13:14:27.422Z,7.77
2022-09-24T13:16:59.411Z,7.37
2022-09-24T13:19:37.477Z,7.40
2022-09-24T13:22:08.258Z,7.00
2022-09-24T13:24:53.344Z,6.70
2022-09-24T13:27:25.804Z,7.47
2022-09-24T13:30:07.884Z,7.50
2022-09-24T13:32:41.543Z,9.17
2022-09-24T13:35:22.279Z,7.33
2022-09-24T13:37:56.795Z,9.27
2022-09-24T13:40:34.236Z,7.70
2022-09-24T13:43:10.698Z,7.97
2022-09-24T13:45:45.194Z,8.60
2022-09-24T13:48:22.764Z,7.47
2022-09-24T13:50:55.461Z,9.20
2022-09-24T13:53:34.591Z,8.00
2022-09-24T13:56:14.514Z,8.80
2022-09-24T13:58:44.832Z,9.37
2022-09-24T14:01:18.508Z,9.20
2022-09-24T14:03:56.477Z,8.70
2022-09-24T14:06:39.954Z,8.50
2022-09-24T14:09:19.711Z,9.50
2022-09-24T14:11:56.764Z,9.37
2022-09-24T14:14:28.365Z,9.73
2022-09-24T14:17:09.393Z,9.63
2022-09-24T14:19:39.792Z,9.10
2022-09-24T14:22:15.191Z,10.97
2022-09-24T14:24:52.659Z,10.53
2022-09-24T14:27:26.702Z,10.90
2022-09-24T14:30:01.167Z,9.20
2022-09-24T14:32:34.025Z,11.10
2022-09-24T14:35:09.309Z,9.97
2022-09-24T14:37:42.407Z,10.70
2022-09-24T14:40:17.708Z,9.80
2022-09-24T14:42:51.761Z,10.60
2022-09-24T14:45:24.186Z,11.23
2022-09-24T14:48:03.808Z,9.97
2022-09-24T14:50:40.982Z,11.00
2022-09-24T14:53:24.812Z,10.20
2022-09-24T14:55:54.700Z,9.80
2022-09-24T14:58:39.022Z,11.03
2022-09-24T15:01:15.853Z,11.00
2022-09-24T15:03:50.480Z,11.30
2022-09-24T15:06:24.333Z,11.20
2022-09-24T15:09:06.769Z,10.50
2022-09-24T15:11:43.805Z,10.67
2022-09-24T15:14:27.758Z,11.77
2022-09-24T15:16:58.270Z,8.20
2022-09-24T15:19:31.818Z,10.07
2022-09-24T15:22:02.821Z,8.63
2022-09-24T15:24:33.372Z,8.10
2022-09-24T15:27:04.999Z,8.30
2022-09-24T15:29:42.754Z,8.57
2022-09-24T15:32:18.537Z,8.50
2022-09-24T15:34:49.685Z,8.90
2022-09-24T15:37:22.445Z,8.97
2022-09-24T15:39:53.901Z,8.70
2022-09-24T15:42:26.079Z,9.83
2022-09-24T15:45:00.701Z,9.77
2022-09-24T15:47:30.518Z,7.80
2022-09-24T15:50:01.926Z,8.10
2022-09-24T15:52:34.745Z,7.43
2022-09-24T15:55:14.998Z,6.67
2022-09-24T15:57:44.837Z,7.03
2022-09-24T16:00:23.642Z,6.97
2022-09-24T16:02:55.299Z,8.97
2022-09-24T16:05:26.046Z,11.10
2022-09-24T16:07:55.821Z,6.60
2022-09-24T16:10:25.976Z,6.20
2022-09-24T16:12:55.766Z,5.73
2022-09-24T16:15:28.780Z,9.27
2022-09-24T16:17:58.532Z,17.30
2022-09-24T16:20:29.652Z,7.73
2022-09-24T16:22:59.409Z,6.77
2022-09-24T16:25:29.728Z,7.33
2022-09-24T16:28:01.064Z,10.83
2022-09-24T16:30:38.244Z,7.50
2022-09-24T16:33:08.463Z,5.10
2022-09-24T16:35:39.281Z,5.93
2022-09-24T16:38:09.016Z,5.67
2022-09-24T16:40:39.308Z,5.60
2022-09-24T16:43:09.647Z,7.63
2022-09-24T16:45:42.344Z,5.90
2022-09-24T16:48:14.160Z,6.70
2022-09-24T16:50:44.779Z,5.63
2022-09-24T16:53:14.534Z,5.10
2022-09-24T16:55:44.742Z,5.30
2022-09-24T16:58:14.528Z,5.40
2022-09-24T17:00:47.201Z,4.87
2022-09-24T17:03:17.176Z,5.60
2022-09-24T17:05:47.706Z,5.23
2022-09-24T17:08:17.448Z,4.63
2022-09-24T17:10:51.602Z,4.60
2022-09-24T17:13:23.252Z,4.73
2022-09-24T17:15:55.748Z,5.80
2022-09-24T17:18:27.596Z,5.07
2022-09-24T17:21:03.299Z,4.50
2022-09-24T17:23:33.758Z,5.50
2022-09-24T17:26:08.135Z,6.07
2022-09-24T17:28:38.710Z,5.27
2022-09-24T17:31:13.448Z,5.30
2022-09-24T17:33:44.519Z,5.57
2022-09-24T17:36:17.036Z,6.00
2022-09-24T17:38:46.833Z,5.70
2022-09-24T17:41:17.587Z,5.77
2022-09-24T17:43:48.188Z,6.20
2022-09-24T17:46:22.711Z,5.77
2022-09-24T17:48:55.336Z,5.00
2022-09-24T17:51:26.777Z,5.10
2022-09-24T17:53:58.343Z,5.00
2022-09-24T17:56:30.351Z,6.00
2022-09-24T17:59:00.416Z,6.00
2022-09-24T18:01:36.014Z,6.13
2022-09-24T18:04:07.866Z,8.17
2022-09-24T18:06:40.642Z,7.60
2022-09-24T18:09:13.281Z,28.60
2022-09-24T18:11:45.192Z,7.00
2022-09-24T18:14:17.785Z,7.20
2022-09-24T18:16:50.831Z,8.33
2022-09-24T18:19:22.419Z,9.07
2022-09-24T18:21:52.231Z,9.33
2022-09-24T18:24:23.081Z,9.03
2022-09-24T18:26:52.991Z,8.03
2022-09-24T18:29:23.358Z,8.40
2022-09-24T18:31:55.714Z,7.23
2022-09-24T18:34:25.865Z,7.80
2022-09-24T18:36:55.667Z,7.40
2022-09-24T18:39:26.073Z,8.37
2022-09-24T18:41:55.856Z,8.40
2022-09-24T18:44:26.748Z,8.40
2022-09-24T18:46:59.147Z,8.87
2022-09-24T18:49:29.678Z,7.30
2022-09-24T18:51:59.721Z,8.70
2022-09-24T18:54:31.283Z,8.30
2022-09-24T18:57:01.093Z,7.50
2022-09-24T18:59:34.884Z,8.20
2022-09-24T19:02:07.538Z,9.47
2022-09-24T19:04:38.105Z,8.20
2022-09-24T19:07:08.565Z,8.63
2022-09-24T19:09:38.979Z,8.13
2022-09-24T19:12:09.434Z,7.60
2022-09-24T19:14:39.858Z,9.30
2022-09-24T19:17:12.226Z,9.03
2022-09-24T19:19:42.379Z,9.03
2022-09-24T19:22:12.121Z,9.33
2022-09-24T19:24:42.584Z,9.67
2022-09-24T19:27:12.581Z,8.37
2022-09-24T19:29:43.519Z,8.87
2022-09-24T19:32:15.864Z,7.10
2022-09-24T19:34:46.403Z,8.07
2022-09-24T19:37:16.176Z,7.50
2022-09-24T19:39:46.824Z,7.13
2022-09-24T19:42:16.594Z,7.43
2022-09-24T19:44:46.966Z,8.33
2022-09-24T19:47:19.317Z,7.63
2022-09-24T19:49:49.815Z,6.97
2022-09-24T19:52:19.594Z,7.10
2022-09-24T19:54:51.285Z,8.60
2022-09-24T19:57:21.652Z,8.57
2022-09-24T19:59:51.772Z,8.30
2022-09-24T20:02:26.791Z,8.20
2022-09-24T20:04:57.746Z,7.73
2022-09-24T20:07:27.625Z,8.13
2022-09-24T20:09:57.710Z,8.10
2022-09-24T20:12:27.542Z,8.57
2022-09-24T20:14:57.766Z,8.33
2022-09-24T20:17:30.084Z,8.07
2022-09-24T20:20:01.400Z,8.43
2022-09-24T20:22:31.158Z,7.80
2022-09-24T20:25:00.961Z,7.03
2022-09-24T20:27:55.022Z,7.93
2022-09-24T20:30:25.842Z,7.67
2022-09-24T20:32:58.204Z,7.47
2022-09-24T20:35:29.382Z,8.27
2022-09-24T20:37:59.148Z,7.93
2022-09-24T20:40:29.691Z,8.50
2022-09-24T20:42:59.575Z,8.73
2022-09-24T20:45:30.030Z,7.90
2022-09-24T20:48:02.797Z,8.27
2022-09-24T20:50:34.931Z,8.10
2022-09-24T20:53:04.682Z,8.03
2022-09-24T20:55:35.195Z,8.00
2022-09-24T20:58:04.928Z,7.00
2022-09-24T21:00:38.081Z,8.33
2022-09-24T21:03:31.872Z,7.57
2022-09-24T21:06:05.476Z,7.90
2022-09-24T21:08:35.651Z,7.80
2022-09-24T21:11:07.402Z,7.43
2022-09-24T21:13:38.331Z,7.83
2022-09-24T21:16:09.717Z,7.27
2022-09-24T21:18:44.465Z,6.73
2022-09-24T21:21:17.629Z,8.63
2022-09-24T21:23:48.811Z,7.27
2022-09-24T21:26:20.769Z,8.67
2022-09-24T21:28:52.289Z,8.27
2022-09-24T21:31:24.537Z,7.33
2022-09-24T21:33:57.135Z,5.90
2022-09-24T21:36:29.402Z,6.50
2022-09-24T21:39:01.458Z,6.60
2022-09-24T21:41:32.991Z,7.40
2022-09-24T21:44:04.528Z,7.03
2022-09-24T21:46:36.015Z,8.17
2022-09-24T21:49:08.908Z,7.17
2022-09-24T21:51:39.020Z,6.83
2022-09-24T21:54:10.411Z,6.93
2022-09-24T21:56:40.190Z,7.73
2022-09-24T21:59:22.984Z,6.77
2022-09-24T22:01:53.308Z,5.90
2022-09-24T22:04:28.118Z,6.33
2022-09-24T22:06:57.863Z,6.67
2022-09-24T22:09:28.022Z,6.43
2022-09-24T22:11:59.106Z,6.03
2022-09-24T22:14:29.515Z,7.10
2022-09-24T22:16:59.323Z,6.53
2022-09-24T22:19:32.365Z,8.03
2022-09-24T22:22:03.065Z,7.40
2022-09-24T22:24:33.325Z,6.70
2022-09-24T22:27:03.095Z,6.57
2022-09-24T22:29:33.591Z,6.10
2022-09-24T22:32:03.642Z,6.67
2022-09-24T22:34:48.962Z,6.37
2022-09-24T22:37:18.676Z,6.13
2022-09-24T22:39:49.142Z,6.50
2022-09-24T22:42:19.071Z,7.33
2022-09-24T22:44:49.232Z,7.20
2022-09-24T22:47:18.999Z,7.70
2022-09-24T22:49:51.399Z,8.10
2022-09-24T22:52:21.154Z,6.73
2022-09-24T22:54:51.700Z,7.97
2022-09-24T22:57:21.455Z,8.30
2022-09-24T22:59:51.858Z,7.93
2022-09-24T23:02:22.193Z,8.97
2022-09-24T23:04:55.744Z,8.47
2022-09-24T23:07:25.875Z,8.57
2022-09-24T23:09:56.001Z,8.00
2022-09-24T23:12:25.782Z,8.00
2022-09-24T23:14:56.864Z,8.10
2022-09-24T23:17:26.899Z,8.30
2022-09-24T23:20:00.401Z,9.30
2022-09-24T23:22:30.165Z,8.63
2022-09-24T23:25:01.089Z,7.80
2022-09-24T23:27:32.508Z,7.60
2022-09-24T23:30:02.646Z,6.90
2022-09-24T23:32:32.441Z,7.40
2022-09-24T23:35:05.119Z,8.80
2022-09-24T23:37:34.896Z,8.20
2022-09-24T23:40:05.489Z,8.60
2022-09-24T23:42:35.245Z,8.17
2022-09-24T23:45:05.341Z,8.17
2022-09-24T23:47:36.269Z,8.30
2022-09-24T23:50:10.204Z,8.20
2022-09-24T23:52:39.995Z,7.40
2022-09-24T23:55:11.101Z,8.17
2022-09-24T23:57:40.852Z,9.30
